Kodiak, AK

4:09 AM AKDT on August 24, 2016 (GMT -0800)
Pillar Mountain | | Change Station

Elev 1204 ft 57.79 °N, 152.44 °W | Updated 14 minutes ago

Light Rain
Light Rain Mist
53.4 °F
Feels Like 53.4 °F
N
9.9
Wind Variable Wind from West

Today
High -- | Low -- °F
--% Chance of Precip.
Yesterday
High -- | Low -- °F
Precip. -- in
Pressure 30.07 in
Visibility 4.0 miles
Clouds Overcast 300 ft
Dew Point 53 °F
Humidity 97%
Rainfall 0.22 in
Snow Depth Not available.
6:54 AM 9:27 PM
Waning Gibbous, 57% visible
METAR PADQ 241153Z 06009KT 4SM -RA BR OVC003 13/13 A3007 RMK AO2 SLP182 P0004 60023 70024 T01330133 10133 20128 58004
Pressure 30.07 in
Visibility 4.0 miles
Clouds Overcast 300 ft
Dew Point 53 °F
Humidity 97%
Rainfall 0.22 in
Snow Depth Not available.
6:54 AM 9:27 PM
Waning Gibbous, 57% visible
METAR PADQ 241153Z 06009KT 4SM -RA BR OVC003 13/13 A3007 RMK AO2 SLP182 P0004 60023 70024 T01330133 10133 20128 58004

10-Day Weather Forecast

Almanac

Astronomy

Aug. 24, 2016 Rise Set
Actual Time
Civil Twilight
Nautical Twilight
Astronomical Twilight
Moon
Length of Visible Light
Length of Day
Tomorrow will be .
, % of the Moon is Illuminated

Today's Extremes

State Highs State Lows

Community

WunderPhotos

Upload Photos

1,934,572 photos uploaded!

WunderBlog® & News

Nearby

Air Quality

  Air Quality AQ Index Pollutant
Not available.

Snow Depth

Station Depth Elevation

Earthquake Activity

City Distance Mag. Time & Date
Minimum magnitude displayed is 2.5.

Coastal Water Temperatures

Place Temperature

Stations

Nearby Weather Stations

Station Location Temp. Windchill Dew Point Humidity Wind Precip. Elev Updated Type
                   

Watches & Warnings

There are currently no watches in effect.